sensor_id;sensor_type;location;lat;lon;timestamp;pressure;altitude;pressure_sealevel;temperature;humidity
50250;BME280;36133;42.522;27.456;2023-04-08T00:00:44;101161.41;;;9.82;50.48
50250;BME280;36133;42.522;27.456;2023-04-08T00:03:10;101431.31;;;10.86;51.75
50250;BME280;36133;42.522;27.456;2023-04-08T00:05:36;101432.19;;;10.79;52.01
50250;BME280;36133;42.522;27.456;2023-04-08T00:08:01;101799.97;;;12.71;52.88
50250;BME280;36133;42.522;27.456;2023-04-08T00:10:27;101670.94;;;12.39;51.64
50250;BME280;36133;42.522;27.456;2023-04-08T00:12:53;101540.56;;;11.08;53.08
50250;BME280;36133;42.522;27.456;2023-04-08T00:15:19;101232.53;;;9.40;52.22
50250;BME280;36133;42.522;27.456;2023-04-08T00:17:50;101326.00;;;10.70;50.44
50250;BME280;36133;42.522;27.456;2023-04-08T00:20:19;101495.72;;;11.86;50.11
50250;BME280;36133;42.522;27.456;2023-04-08T00:22:45;101462.66;;;11.98;49.50
50250;BME280;36133;42.522;27.456;2023-04-08T00:25:11;101340.03;;;11.13;49.38
50250;BME280;36133;42.522;27.456;2023-04-08T00:27:36;101303.94;;;11.06;49.20
50250;BME280;36133;42.522;27.456;2023-04-08T00:30:02;101297.25;;;10.85;49.22
50250;BME280;36133;42.522;27.456;2023-04-08T00:32:28;101278.72;;;9.86;51.09
50250;BME280;36133;42.522;27.456;2023-04-08T00:34:54;101485.34;;;10.86;52.22
50250;BME280;36133;42.522;27.456;2023-04-08T00:37:20;101475.69;;;10.11;53.99
50250;BME280;36133;42.522;27.456;2023-04-08T00:39:47;101509.34;;;10.81;52.60
50250;BME280;36133;42.522;27.456;2023-04-08T00:42:13;101225.63;;;8.63;53.42
50250;BME280;36133;42.522;27.456;2023-04-08T00:44:41;101075.44;;;7.56;53.83
50250;BME280;36133;42.522;27.456;2023-04-08T00:47:06;101547.56;;;9.78;55.03
50250;BME280;36133;42.522;27.456;2023-04-08T00:49:32;101167.81;;;7.81;54.38
50250;BME280;36133;42.522;27.456;2023-04-08T00:51:58;101761.41;;;11.65;54.12
50250;BME280;36133;42.522;27.456;2023-04-08T00:54:24;101155.44;;;8.57;51.72
50250;BME280;36133;42.522;27.456;2023-04-08T00:56:50;101260.16;;;9.43;50.95
50250;BME280;36133;42.522;27.456;2023-04-08T00:59:16;101494.16;;;10.80;50.24
50250;BME280;36133;42.522;27.456;2023-04-08T01:07:28;101564.06;;;10.09;54.42
50250;BME280;36133;42.522;27.456;2023-04-08T01:10:15;101621.13;;;9.88;56.39
50250;BME280;36133;42.522;27.456;2023-04-08T01:12:45;101363.44;;;8.67;56.05
50250;BME280;36133;42.522;27.456;2023-04-08T01:15:13;101355.03;;;8.00;57.41
50250;BME280;36133;42.522;27.456;2023-04-08T01:17:42;101158.94;;;7.63;55.48
50250;BME280;36133;42.522;27.456;2023-04-08T01:20:09;101783.03;;;11.49;54.81
50250;BME280;36133;42.522;27.456;2023-04-08T01:23:04;101558.91;;;10.32;54.37
50250;BME280;36133;42.522;27.456;2023-04-08T01:25:35;101092.00;;;8.04;52.21
50250;BME280;36133;42.522;27.456;2023-04-08T01:28:10;101651.84;;;11.69;51.48
50250;BME280;36133;42.522;27.456;2023-04-08T01:30:40;101575.38;;;10.79;51.67
50250;BME280;36133;42.522;27.456;2023-04-08T01:33:09;101565.44;;;10.21;54.38
50250;BME280;36133;42.522;27.456;2023-04-08T01:35:36;101560.00;;;10.13;54.82
50250;BME280;36133;42.522;27.456;2023-04-08T01:38:04;101415.22;;;8.87;56.17
50250;BME280;36133;42.522;27.456;2023-04-08T01:40:32;101740.16;;;10.79;56.93
50250;BME280;36133;42.522;27.456;2023-04-08T01:43:00;101364.09;;;8.69;56.09
50250;BME280;36133;42.522;27.456;2023-04-08T01:45:27;101551.09;;;10.20;55.02
50250;BME280;36133;42.522;27.456;2023-04-08T01:47:54;101171.44;;;8.24;53.28
50250;BME280;36133;42.522;27.456;2023-04-08T01:50:21;101454.72;;;9.88;53.60
50250;BME280;36133;42.522;27.456;2023-04-08T01:52:51;101772.94;;;11.99;53.01
50250;BME280;36133;42.522;27.456;2023-04-08T01:55:18;101590.72;;;10.95;52.13
50250;BME280;36133;42.522;27.456;2023-04-08T01:57:48;101490.88;;;10.20;53.12
50250;BME280;36133;42.522;27.456;2023-04-08T02:00:25;101743.13;;;11.51;53.42
50250;BME280;36133;42.522;27.456;2023-04-08T02:02:53;101581.34;;;9.90;55.28
50250;BME280;36133;42.522;27.456;2023-04-08T02:05:19;101517.63;;;9.97;54.04
50250;BME280;36133;42.522;27.456;2023-04-08T02:07:47;101808.56;;;11.70;53.66
50250;BME280;36133;42.522;27.456;2023-04-08T02:10:12;101209.94;;;8.25;53.09
50250;BME280;36133;42.522;27.456;2023-04-08T02:12:42;101451.84;;;9.39;54.25
50250;BME280;36133;42.522;27.456;2023-04-08T02:15:11;101192.94;;;7.98;53.54
50250;BME280;36133;42.522;27.456;2023-04-08T02:20:09;101175.59;;;8.18;52.38
50250;BME280;36133;42.522;27.456;2023-04-08T02:23:03;101358.97;;;9.18;52.56
50250;BME280;36133;42.522;27.456;2023-04-08T02:25:34;101222.59;;;8.06;52.58
50250;BME280;36133;42.522;27.456;2023-04-08T02:28:03;101543.22;;;9.85;52.91
50250;BME280;36133;42.522;27.456;2023-04-08T02:30:31;101785.69;;;11.24;53.56
50250;BME280;36133;42.522;27.456;2023-04-08T02:33:00;101210.59;;;7.75;53.19
50250;BME280;36133;42.522;27.456;2023-04-08T02:35:27;101798.91;;;11.27;53.79
50250;BME280;36133;42.522;27.456;2023-04-08T02:37:53;101208.75;;;7.75;53.14
50250;BME280;36133;42.522;27.456;2023-04-08T02:40:30;101275.53;;;8.06;53.33
50250;BME280;36133;42.522;27.456;2023-04-08T02:42:56;101205.16;;;7.05;55.38
50250;BME280;36133;42.522;27.456;2023-04-08T02:45:27;101684.91;;;9.71;56.88
50250;BME280;36133;42.522;27.456;2023-04-08T02:47:54;101539.88;;;8.97;56.62
50250;BME280;36133;42.522;27.456;2023-04-08T02:50:20;101603.25;;;9.87;54.60
50250;BME280;36133;42.522;27.456;2023-04-08T02:52:45;101521.56;;;9.68;53.71
50250;BME280;36133;42.522;27.456;2023-04-08T02:55:13;101650.41;;;10.51;53.42
50250;BME280;36133;42.522;27.456;2023-04-08T02:57:40;101258.78;;;7.68;53.57
50250;BME280;36133;42.522;27.456;2023-04-08T03:00:07;101612.34;;;9.86;54.05
50250;BME280;36133;42.522;27.456;2023-04-08T03:02:33;101804.19;;;10.95;54.62
50250;BME280;36133;42.522;27.456;2023-04-08T03:04:58;101818.66;;;11.28;54.27
50250;BME280;36133;42.522;27.456;2023-04-08T03:07:24;101249.16;;;7.40;54.43
50250;BME280;36133;42.522;27.456;2023-04-08T03:09:50;101509.22;;;8.36;56.68
50250;BME280;36133;42.522;27.456;2023-04-08T03:12:16;101579.88;;;8.56;58.42
50250;BME280;36133;42.522;27.456;2023-04-08T03:14:42;101767.28;;;10.09;58.15
50250;BME280;36133;42.522;27.456;2023-04-08T03:17:07;101510.78;;;8.29;59.20
50250;BME280;36133;42.522;27.456;2023-04-08T03:19:33;101275.06;;;6.86;59.05
50250;BME280;36133;42.522;27.456;2023-04-08T03:21:58;101593.66;;;8.89;59.04
50250;BME280;36133;42.522;27.456;2023-04-08T03:24:24;101665.28;;;8.81;60.04
50250;BME280;36133;42.522;27.456;2023-04-08T03:26:50;101259.88;;;6.02;61.56
50250;BME280;36133;42.522;27.456;2023-04-08T03:29:18;101176.50;;;5.86;60.65
50250;BME280;36133;42.522;27.456;2023-04-08T03:31:43;101188.13;;;6.24;59.62
50250;BME280;36133;42.522;27.456;2023-04-08T03:34:12;101572.75;;;8.19;60.88
50250;BME280;36133;42.522;27.456;2023-04-08T03:36:40;101328.63;;;6.40;60.44
50250;BME280;36133;42.522;27.456;2023-04-08T03:39:06;101330.41;;;6.69;59.88
50250;BME280;36133;42.522;27.456;2023-04-08T03:41:31;101364.72;;;7.30;59.01
50250;BME280;36133;42.522;27.456;2023-04-08T03:43:57;101395.75;;;7.87;58.08
50250;BME280;36133;42.522;27.456;2023-04-08T03:46:22;101262.34;;;6.88;58.01
50250;BME280;36133;42.522;27.456;2023-04-08T03:48:51;101868.53;;;9.95;58.76
50250;BME280;36133;42.522;27.456;2023-04-08T03:51:17;101653.66;;;8.81;59.14
50250;BME280;36133;42.522;27.456;2023-04-08T03:53:42;101575.19;;;7.85;60.62
50250;BME280;36133;42.522;27.456;2023-04-08T03:56:08;101500.53;;;8.60;57.15
50250;BME280;36133;42.522;27.456;2023-04-08T03:58:34;101361.09;;;8.46;55.48
50250;BME280;36133;42.522;27.456;2023-04-08T04:00:59;101616.44;;;10.32;54.25
50250;BME280;36133;42.522;27.456;2023-04-08T04:03:25;101840.22;;;11.86;54.14
50250;BME280;36133;42.522;27.456;2023-04-08T04:05:51;101631.72;;;10.66;53.87
50250;BME280;36133;42.522;27.456;2023-04-08T04:08:17;101571.44;;;10.49;53.86
50250;BME280;36133;42.522;27.456;2023-04-08T04:10:42;101640.53;;;11.00;53.59
50250;BME280;36133;42.522;27.456;2023-04-08T04:13:09;101416.47;;;9.34;53.93
50250;BME280;36133;42.522;27.456;2023-04-08T04:15:38;101344.16;;;8.54;55.21
50250;BME280;36133;42.522;27.456;2023-04-08T04:18:05;101831.69;;;10.82;57.32
50250;BME280;36133;42.522;27.456;2023-04-08T04:20:31;101640.31;;;10.61;55.15
50250;BME280;36133;42.522;27.456;2023-04-08T04:22:56;101872.66;;;12.59;53.74
50250;BME280;36133;42.522;27.456;2023-04-08T04:25:22;101877.63;;;13.03;53.01
50250;BME280;36133;42.522;27.456;2023-04-08T04:27:51;101623.06;;;11.84;52.37
50250;BME280;36133;42.522;27.456;2023-04-08T04:30:16;101305.84;;;9.93;52.61
50250;BME280;36133;42.522;27.456;2023-04-08T04:32:44;101488.53;;;11.06;52.30
50250;BME280;36133;42.522;27.456;2023-04-08T04:35:10;101862.84;;;12.67;53.03
50250;BME280;36133;42.522;27.456;2023-04-08T04:37:36;101753.63;;;11.54;53.72
50250;BME280;36133;42.522;27.456;2023-04-08T04:40:05;101606.09;;;11.02;53.04
50250;BME280;36133;42.522;27.456;2023-04-08T04:42:31;101574.50;;;11.11;52.26
50250;BME280;36133;42.522;27.456;2023-04-08T04:44:57;101378.88;;;10.08;51.88
50250;BME280;36133;42.522;27.456;2023-04-08T04:47:24;101859.03;;;12.84;52.70
50250;BME280;36133;42.522;27.456;2023-04-08T04:49:52;101260.63;;;9.22;52.05
50250;BME280;36133;42.522;27.456;2023-04-08T04:52:17;101664.00;;;11.89;52.15
50250;BME280;36133;42.522;27.456;2023-04-08T04:54:45;101625.22;;;12.05;50.85
50250;BME280;36133;42.522;27.456;2023-04-08T04:57:11;101649.59;;;11.97;51.20
50250;BME280;36133;42.522;27.456;2023-04-08T04:59:36;101595.75;;;11.47;51.42
50250;BME280;36133;42.522;27.456;2023-04-08T05:02:02;101622.09;;;12.24;50.46
50250;BME280;36133;42.522;27.456;2023-04-08T05:04:27;101261.34;;;9.97;50.56
50250;BME280;36133;42.522;27.456;2023-04-08T05:06:53;101288.16;;;10.23;50.22
50250;BME280;36133;42.522;27.456;2023-04-08T05:09:19;101792.31;;;13.91;49.03
50250;BME280;36133;42.522;27.456;2023-04-08T05:11:45;101384.06;;;12.15;48.61
50250;BME280;36133;42.522;27.456;2023-04-08T05:14:10;101827.41;;;14.68;47.99
50250;BME280;36133;42.522;27.456;2023-04-08T05:16:36;101328.38;;;11.43;47.58
50250;BME280;36133;42.522;27.456;2023-04-08T05:19:03;101522.44;;;12.20;49.12
50250;BME280;36133;42.522;27.456;2023-04-08T05:21:28;101653.75;;;12.16;50.68
50250;BME280;36133;42.522;27.456;2023-04-08T05:23:54;101882.75;;;13.91;50.16
50250;BME280;36133;42.522;27.456;2023-04-08T05:26:19;101487.72;;;11.53;49.54
50250;BME280;36133;42.522;27.456;2023-04-08T05:28:48;101438.28;;;11.67;49.27
50250;BME280;36133;42.522;27.456;2023-04-08T05:31:15;101351.81;;;11.28;48.64
50250;BME280;36133;42.522;27.456;2023-04-08T05:33:41;101864.66;;;15.69;46.34
50250;BME280;36133;42.522;27.456;2023-04-08T05:36:11;101387.69;;;13.27;45.52
50250;BME280;36133;42.522;27.456;2023-04-08T05:38:37;101503.91;;;13.74;44.97
50250;BME280;36133;42.522;27.456;2023-04-08T05:41:07;101804.03;;;15.24;46.40
50250;BME280;36133;42.522;27.456;2023-04-08T05:43:33;101451.97;;;13.03;46.61
50250;BME280;36133;42.522;27.456;2023-04-08T05:45:59;101677.28;;;13.54;49.07
50250;BME280;36133;42.522;27.456;2023-04-08T05:48:25;101739.25;;;14.77;47.70
50250;BME280;36133;42.522;27.456;2023-04-08T05:50:50;101545.06;;;14.43;46.05
50250;BME280;36133;42.522;27.456;2023-04-08T05:53:16;101900.69;;;16.35;46.03
50250;BME280;36133;42.522;27.456;2023-04-08T05:55:42;101363.44;;;12.66;46.82
50250;BME280;36133;42.522;27.456;2023-04-08T05:58:07;101320.38;;;12.56;47.36
50250;BME280;36133;42.522;27.456;2023-04-08T06:00:33;101377.84;;;13.40;46.18
50250;BME280;36133;42.522;27.456;2023-04-08T06:02:59;101549.94;;;15.46;44.53
50250;BME280;36133;42.522;27.456;2023-04-08T06:05:24;101839.78;;;17.18;44.23
50250;BME280;36133;42.522;27.456;2023-04-08T06:07:50;101894.47;;;18.79;42.01
50250;BME280;36133;42.522;27.456;2023-04-08T06:10:16;101918.44;;;18.24;42.72
50250;BME280;36133;42.522;27.456;2023-04-08T06:12:44;101712.50;;;16.08;45.72
50250;BME280;36133;42.522;27.456;2023-04-08T06:15:13;101486.84;;;13.80;47.94
50250;BME280;36133;42.522;27.456;2023-04-08T06:17:56;101724.59;;;16.68;45.80
50250;BME280;36133;42.522;27.456;2023-04-08T06:20:22;101562.19;;;15.92;44.54
50250;BME280;36133;42.522;27.456;2023-04-08T06:22:51;101430.69;;;13.81;47.18
50250;BME280;36133;42.522;27.456;2023-04-08T06:25:23;101383.22;;;14.34;45.80
50250;BME280;36133;42.522;27.456;2023-04-08T06:27:52;101445.41;;;15.00;44.56
50250;BME280;36133;42.522;27.456;2023-04-08T06:30:25;101425.69;;;12.37;50.53
50250;BME280;36133;42.522;27.456;2023-04-08T06:33:05;101362.53;;;13.33;48.23
50250;BME280;36133;42.522;27.456;2023-04-08T06:35:36;101421.53;;;15.64;44.01
50250;BME280;36133;42.522;27.456;2023-04-08T06:38:05;101398.31;;;15.27;44.20
50250;BME280;36133;42.522;27.456;2023-04-08T06:40:34;101405.13;;;15.51;43.37
50250;BME280;36133;42.522;27.456;2023-04-08T06:43:08;101420.16;;;15.88;42.32
50250;BME280;36133;42.522;27.456;2023-04-08T06:45:34;101384.97;;;15.39;43.30
50250;BME280;36133;42.522;27.456;2023-04-08T06:48:08;101916.63;;;16.59;46.91
50250;BME280;36133;42.522;27.456;2023-04-08T06:51:00;101390.50;;;12.14;50.48
50250;BME280;36133;42.522;27.456;2023-04-08T06:53:35;101583.84;;;14.37;47.85
50250;BME280;36133;42.522;27.456;2023-04-08T06:56:09;101393.22;;;13.91;46.46
50250;BME280;36133;42.522;27.456;2023-04-08T06:58:40;101887.94;;;16.63;47.67
50250;BME280;36133;42.522;27.456;2023-04-08T07:01:09;101487.97;;;13.86;47.63
50250;BME280;36133;42.522;27.456;2023-04-08T07:03:38;101560.44;;;14.72;47.28
50250;BME280;36133;42.522;27.456;2023-04-08T07:06:04;101354.88;;;13.22;47.64
50250;BME280;36133;42.522;27.456;2023-04-08T07:08:33;101318.78;;;12.91;47.86
50250;BME280;36133;42.522;27.456;2023-04-08T07:11:19;101679.00;;;15.59;47.38
50250;BME280;36133;42.522;27.456;2023-04-08T07:13:52;101385.44;;;13.81;47.63
50250;BME280;36133;42.522;27.456;2023-04-08T07:16:18;101403.56;;;13.81;47.43
50250;BME280;36133;42.522;27.456;2023-04-08T07:18:49;101902.97;;;16.81;47.27
50250;BME280;36133;42.522;27.456;2023-04-08T07:21:28;101698.31;;;16.20;45.33
50250;BME280;36133;42.522;27.456;2023-04-08T07:23:55;101392.78;;;13.87;47.65
50250;BME280;36133;42.522;27.456;2023-04-08T07:26:23;101829.97;;;16.55;46.76
50250;BME280;36133;42.522;27.456;2023-04-08T07:28:49;101538.94;;;15.27;46.73
50250;BME280;36133;42.522;27.456;2023-04-08T07:31:16;101497.88;;;15.21;45.19
50250;BME280;36133;42.522;27.456;2023-04-08T07:34:04;101915.50;;;20.26;41.25
50250;BME280;36133;42.522;27.456;2023-04-08T07:36:51;101635.19;;;20.05;38.55
50250;BME280;36133;42.522;27.456;2023-04-08T07:39:17;101626.03;;;20.30;36.78
50250;BME280;36133;42.522;27.456;2023-04-08T07:41:46;101419.81;;;19.31;36.25
50250;BME280;36133;42.522;27.456;2023-04-08T07:44:12;101660.47;;;19.39;38.32
50250;BME280;36133;42.522;27.456;2023-04-08T07:46:44;101622.19;;;19.01;39.24
50250;BME280;36133;42.522;27.456;2023-04-08T07:49:16;101471.84;;;17.86;39.25
50250;BME280;36133;42.522;27.456;2023-04-08T07:51:48;101783.06;;;21.88;35.24
50250;BME280;36133;42.522;27.456;2023-04-08T07:54:14;101497.13;;;18.83;37.27
50250;BME280;36133;42.522;27.456;2023-04-08T07:56:44;101623.22;;;19.07;39.11
50250;BME280;36133;42.522;27.456;2023-04-08T07:59:13;101652.06;;;20.75;35.97
50250;BME280;36133;42.522;27.456;2023-04-08T08:01:38;101770.81;;;24.25;32.25
50250;BME280;36133;42.522;27.456;2023-04-08T08:04:04;101940.88;;;23.46;33.50
50250;BME280;36133;42.522;27.456;2023-04-08T08:06:32;101757.59;;;20.61;35.94
50250;BME280;36133;42.522;27.456;2023-04-08T08:08:59;101740.72;;;22.71;33.00
50250;BME280;36133;42.522;27.456;2023-04-08T08:11:30;101444.88;;;18.60;36.23
50250;BME280;36133;42.522;27.456;2023-04-08T08:14:00;101539.38;;;21.12;33.98
50250;BME280;36133;42.522;27.456;2023-04-08T08:16:36;101740.19;;;23.43;32.11
50250;BME280;36133;42.522;27.456;2023-04-08T08:19:06;101545.00;;;22.28;32.02
50250;BME280;36133;42.522;27.456;2023-04-08T08:22:14;101450.94;;;21.10;33.56
50250;BME280;36133;42.522;27.456;2023-04-08T08:24:46;101772.84;;;23.96;31.98
50250;BME280;36133;42.522;27.456;2023-04-08T08:27:12;101763.13;;;23.60;32.14
50250;BME280;36133;42.522;27.456;2023-04-08T08:29:37;101927.38;;;24.30;32.66
50250;BME280;36133;42.522;27.456;2023-04-08T08:32:03;101547.56;;;20.47;34.99
50250;BME280;36133;42.522;27.456;2023-04-08T08:34:31;101495.06;;;21.67;32.91
50250;BME280;36133;42.522;27.456;2023-04-08T08:37:00;101754.28;;;23.01;32.23
50250;BME280;36133;42.522;27.456;2023-04-08T08:39:26;101462.75;;;21.22;32.98
50250;BME280;36133;42.522;27.456;2023-04-08T08:41:52;101545.88;;;22.05;32.66
50250;BME280;36133;42.522;27.456;2023-04-08T08:44:18;101758.91;;;22.84;32.97
50250;BME280;36133;42.522;27.456;2023-04-08T08:46:47;101419.78;;;18.94;35.65
50250;BME280;36133;42.522;27.456;2023-04-08T08:49:31;101615.50;;;22.45;32.82
50250;BME280;36133;42.522;27.456;2023-04-08T08:52:01;101689.94;;;22.39;33.04
50250;BME280;36133;42.522;27.456;2023-04-08T08:54:27;101751.50;;;24.64;30.55
50250;BME280;36133;42.522;27.456;2023-04-08T08:56:53;101919.31;;;25.34;30.58
50250;BME280;36133;42.522;27.456;2023-04-08T08:59:31;101543.31;;;21.75;32.94
50250;BME280;36133;42.522;27.456;2023-04-08T09:01:59;101769.50;;;24.11;31.80
50250;BME280;36133;42.522;27.456;2023-04-08T09:04:24;101765.16;;;24.15;30.49
50250;BME280;36133;42.522;27.456;2023-04-08T09:07:11;101563.34;;;22.10;32.19
50250;BME280;36133;42.522;27.456;2023-04-08T09:09:54;101473.81;;;22.93;30.64
50250;BME280;36133;42.522;27.456;2023-04-08T09:12:29;101457.56;;;20.67;34.50
50250;BME280;36133;42.522;27.456;2023-04-08T09:15:24;101912.56;;;25.96;30.34
50250;BME280;36133;42.522;27.456;2023-04-08T09:17:50;101620.13;;;24.68;29.91
50250;BME280;36133;42.522;27.456;2023-04-08T09:20:16;101481.13;;;24.84;29.15
50250;BME280;36133;42.522;27.456;2023-04-08T09:23:00;101912.03;;;26.63;30.04
50250;BME280;36133;42.522;27.456;2023-04-08T09:25:56;101717.72;;;24.79;31.02
50250;BME280;36133;42.522;27.456;2023-04-08T09:28:25;101884.81;;;25.64;30.66
50250;BME280;36133;42.522;27.456;2023-04-08T09:30:59;101402.47;;;21.27;33.02
50250;BME280;36133;42.522;27.456;2023-04-08T09:33:30;101393.28;;;21.90;31.86
50250;BME280;36133;42.522;27.456;2023-04-08T09:35:56;101776.88;;;24.83;31.09
50250;BME280;36133;42.522;27.456;2023-04-08T09:38:22;101390.47;;;22.31;31.74
50250;BME280;36133;42.522;27.456;2023-04-08T09:40:48;101565.34;;;22.55;32.71
50250;BME280;36133;42.522;27.456;2023-04-08T09:43:20;101710.28;;;24.79;31.17
50250;BME280;36133;42.522;27.456;2023-04-08T09:48:41;101392.44;;;21.10;33.12
50250;BME280;36133;42.522;27.456;2023-04-08T09:51:11;101567.97;;;22.78;32.35
50250;BME280;36133;42.522;27.456;2023-04-08T09:53:45;101886.66;;;23.92;33.13
50250;BME280;36133;42.522;27.456;2023-04-08T09:56:24;101854.38;;;25.64;30.43
50250;BME280;36133;42.522;27.456;2023-04-08T09:59:12;101473.25;;;23.68;30.00
50250;BME280;36133;42.522;27.456;2023-04-08T10:01:46;101536.31;;;22.93;31.69
50250;BME280;36133;42.522;27.456;2023-04-08T10:04:18;101700.16;;;25.12;30.03
50250;BME280;36133;42.522;27.456;2023-04-08T10:07:07;101904.44;;;25.40;31.27
50250;BME280;36133;42.522;27.456;2023-04-08T10:09:33;101931.06;;;23.50;32.94
50250;BME280;36133;42.522;27.456;2023-04-08T10:12:03;101693.72;;;23.80;31.71
50250;BME280;36133;42.522;27.456;2023-04-08T10:14:32;101760.09;;;22.65;33.61
50250;BME280;36133;42.522;27.456;2023-04-08T10:17:24;101912.34;;;22.54;35.20
50250;BME280;36133;42.522;27.456;2023-04-08T10:19:52;101529.03;;;20.61;35.13
50250;BME280;36133;42.522;27.456;2023-04-08T10:22:55;101902.75;;;22.03;35.78
50250;BME280;36133;42.522;27.456;2023-04-08T10:25:51;101562.25;;;20.94;34.21
50250;BME280;36133;42.522;27.456;2023-04-08T10:28:31;101510.06;;;20.11;35.50
50250;BME280;36133;42.522;27.456;2023-04-08T10:31:00;101409.34;;;18.85;36.26
50250;BME280;36133;42.522;27.456;2023-04-08T10:36:13;101889.84;;;21.25;38.05
50250;BME280;36133;42.522;27.456;2023-04-08T10:39:02;101366.41;;;19.58;35.33
50250;BME280;36133;42.522;27.456;2023-04-08T10:41:42;101503.06;;;20.87;34.14
50250;BME280;36133;42.522;27.456;2023-04-08T10:44:29;101499.13;;;22.62;32.46
50250;BME280;36133;42.522;27.456;2023-04-08T10:47:15;101396.16;;;18.75;36.77
50250;BME280;36133;42.522;27.456;2023-04-08T10:49:51;101571.59;;;22.10;33.66
50250;BME280;36133;42.522;27.456;2023-04-08T10:52:20;101883.38;;;24.57;33.24
50250;BME280;36133;42.522;27.456;2023-04-08T10:54:52;101324.44;;;18.73;36.11
50250;BME280;36133;42.522;27.456;2023-04-08T10:57:31;101399.25;;;19.03;36.33
50250;BME280;36133;42.522;27.456;2023-04-08T11:00:35;101871.63;;;24.83;31.22
50250;BME280;36133;42.522;27.456;2023-04-08T11:03:02;101875.06;;;23.21;33.57
50250;BME280;36133;42.522;27.456;2023-04-08T11:05:38;101327.72;;;19.48;34.71
50250;BME280;36133;42.522;27.456;2023-04-08T11:08:07;101537.00;;;21.74;32.72
50250;BME280;36133;42.522;27.456;2023-04-08T11:10:37;101398.94;;;20.27;34.21
50250;BME280;36133;42.522;27.456;2023-04-08T11:13:27;101721.38;;;20.09;37.09
50250;BME280;36133;42.522;27.456;2023-04-08T11:16:04;101634.63;;;21.77;33.75
50250;BME280;36133;42.522;27.456;2023-04-08T11:18:41;101874.50;;;23.48;33.34
50250;BME280;36133;42.522;27.456;2023-04-08T11:21:10;101708.84;;;22.87;33.43
50250;BME280;36133;42.522;27.456;2023-04-08T11:23:40;101315.94;;;21.01;31.62
50250;BME280;36133;42.522;27.456;2023-04-08T11:26:22;101438.03;;;21.46;31.78
50250;BME280;36133;42.522;27.456;2023-04-08T11:28:48;101380.28;;;17.77;35.81
50250;BME280;36133;42.522;27.456;2023-04-08T11:31:19;101296.94;;;19.05;33.34
50250;BME280;36133;42.522;27.456;2023-04-08T11:33:54;101288.13;;;18.66;34.32
50250;BME280;36133;42.522;27.456;2023-04-08T11:36:47;101236.19;;;17.03;36.95
50250;BME280;36133;42.522;27.456;2023-04-08T11:39:22;101530.34;;;20.70;34.05
50250;BME280;36133;42.522;27.456;2023-04-08T11:41:53;101364.81;;;19.81;33.88
50250;BME280;36133;42.522;27.456;2023-04-08T11:44:30;101650.38;;;22.16;33.15
50250;BME280;36133;42.522;27.456;2023-04-08T11:46:56;101479.03;;;20.59;33.70
50250;BME280;36133;42.522;27.456;2023-04-08T11:49:26;101399.13;;;20.78;32.82
50250;BME280;36133;42.522;27.456;2023-04-08T11:51:59;101879.69;;;21.07;36.46
50250;BME280;36133;42.522;27.456;2023-04-08T11:54:39;101244.53;;;18.71;34.77
50250;BME280;36133;42.522;27.456;2023-04-08T11:57:05;101357.47;;;19.93;33.99
50250;BME280;36133;42.522;27.456;2023-04-08T11:59:31;101655.53;;;21.89;32.74
50250;BME280;36133;42.522;27.456;2023-04-08T12:01:57;101383.03;;;19.75;33.62
50250;BME280;36133;42.522;27.456;2023-04-08T12:04:23;101844.53;;;20.61;37.63
50250;BME280;36133;42.522;27.456;2023-04-08T12:06:52;101696.78;;;19.28;38.78
50250;BME280;36133;42.522;27.456;2023-04-08T12:09:18;101312.88;;;17.71;38.02
50250;BME280;36133;42.522;27.456;2023-04-08T12:11:53;101661.13;;;21.06;35.68
50250;BME280;36133;42.522;27.456;2023-04-08T12:14:27;101360.03;;;16.82;39.88
50250;BME280;36133;42.522;27.456;2023-04-08T12:16:56;101184.94;;;16.74;38.36
50250;BME280;36133;42.522;27.456;2023-04-08T12:19:25;101425.88;;;16.92;40.73
50250;BME280;36133;42.522;27.456;2023-04-08T12:22:09;101655.00;;;20.44;37.11
50250;BME280;36133;42.522;27.456;2023-04-08T12:24:39;101352.72;;;19.22;35.79
50250;BME280;36133;42.522;27.456;2023-04-08T12:27:05;101851.25;;;20.15;39.81
50250;BME280;36133;42.522;27.456;2023-04-08T12:29:36;101253.22;;;17.30;37.86
50250;BME280;36133;42.522;27.456;2023-04-08T12:35:26;101281.25;;;13.61;45.97
50250;BME280;36133;42.522;27.456;2023-04-08T12:37:52;101279.59;;;14.09;44.24
50250;BME280;36133;42.522;27.456;2023-04-08T12:40:23;101506.69;;;15.99;42.48
50250;BME280;36133;42.522;27.456;2023-04-08T12:45:58;101275.72;;;17.25;38.96
50250;BME280;36133;42.522;27.456;2023-04-08T12:48:55;101436.38;;;16.36;41.51
50250;BME280;36133;42.522;27.456;2023-04-08T12:51:32;101147.03;;;13.35;43.24
50250;BME280;36133;42.522;27.456;2023-04-08T12:56:53;101489.22;;;14.83;45.03
50250;BME280;36133;42.522;27.456;2023-04-08T13:02:35;101410.06;;;14.44;45.22
50250;BME280;36133;42.522;27.456;2023-04-08T13:05:15;101337.72;;;12.47;48.58
50250;BME280;36133;42.522;27.456;2023-04-08T13:11:52;101721.59;;;14.66;49.44
50250;BME280;36133;42.522;27.456;2023-04-08T13:14:27;101360.34;;;12.84;48.97
50250;BME280;36133;42.522;27.456;2023-04-08T13:17:04;101842.00;;;16.67;47.36
50250;BME280;36133;42.522;27.456;2023-04-08T13:19:44;101377.59;;;13.21;48.93
50250;BME280;36133;42.522;27.456;2023-04-08T13:25:10;101199.41;;;11.67;51.05
50250;BME280;36133;42.522;27.456;2023-04-08T13:30:50;101298.63;;;13.45;48.28
50250;BME280;36133;42.522;27.456;2023-04-08T13:46:37;101295.44;;;12.76;50.20
50250;BME280;36133;42.522;27.456;2023-04-08T13:54:39;101644.91;;;14.92;50.47